Home > Products > Valid Products > TAF

000
FTUS43 KIND 270900 AAA
TAFLAF
TAF AMD
KLAF 270900Z 2709/2806 18006KT P6SM SCT040
     FM271500 24010G18KT P6SM VCTS BKN040CB
     FM272000 27010G18KT P6SM BKN100
     FM280100 31005KT P6SM SKC
      AMD LTD TO CLD VIS AND WIND TIL 271300=



000
FTUS43 KIND 270800 AAA
TAFIND
TAF AMD
KIND 270814Z 2708/2812 20007KT P6SM FEW250
     FM271700 23014G22KT P6SM VCTS BKN040CB
     FM280100 25008G15KT P6SM SCT250
     FM280300 26002KT P6SM SKC
     FM280800 VRB02KT 4SM BR SKC=



000
FTUS43 KIND 270500
TAFIND
TAF
KIND 270520Z 2706/2812 21009KT P6SM BKN250
     FM271700 23014G22KT P6SM VCTS BKN040CB
     FM280100 25008G15KT P6SM SCT250
     FM280300 26002KT P6SM SKC
     FM280800 VRB02KT 4SM BR SKC=



000
FTUS43 KIND 270500
TAFLAF
TAF
KLAF 270520Z 2706/2806 18006KT P6SM SCT040
      TEMPO 2709/2713 5SM BR
     FM271500 24010G18KT P6SM VCTS BKN040CB
     FM272000 27010G18KT P6SM BKN100
     FM280100 31005KT P6SM SKC
      AMD LTD TO CLD VIS AND WIND TIL 271300=



000
FTUS43 KIND 270200 AAA
TAFIND
TAF AMD
KIND 270203Z 2702/2806 21007KT P6SM FEW080 BKN200
     FM270600 20008KT P6SM SCT040
     FM271700 23014G22KT P6SM VCTS BKN040CB
     FM280100 25010G18KT P6SM SCT250=



000
FTUS43 KIND 270200 AAA
TAFIND
TAF AMD
KIND 270203Z 2702/2806 21007KT P6SM FEW080 BKN200
     FM270600 20008KT P6SM SCT040
     FM271700 23014G22KT P6SM VCTS BKN040CB
     FM280100 25010G18KT P6SM SCT250=



000
FTUS43 KIND 270100 AAA
TAFLAF
TAF AMD
KLAF 270100Z 2701/2724 25007KT P6SM FEW045 OVC060
     FM270300 21006KT 5SM BR SCT040
     FM271500 24010G18KT P6SM VCTS BKN040CB
     FM272000 27010G20KT P6SM BKN100
      AMD LTD TO CLD VIS AND WIND 2701/2713=



000
FTUS43 KIND 262300
TAFIND
TAF
KIND 262320Z 2700/2806 21015G25KT P6SM BKN060 BKN090 OVC200
     FM270600 20008KT P6SM SCT040
     FM271700 23014G22KT P6SM VCTS BKN040CB
     FM280100 25010G18KT P6SM SCT250=



000
FTUS43 KIND 262300
TAFLAF
TAF
KLAF 262320Z 2700/2724 24010G24KT P6SM BKN080 OVC100
     FM270300 21006KT 3SM BR SCT040
     FM271500 24010G18KT P6SM VCTS BKN040CB
     FM272000 27010G20KT P6SM BKN100
      AMD LTD TO CLD VIS AND WIND 2701/2713=



000
FTUS43 KIND 262100 AAB
TAFLAF
TAF AMD
KLAF 262135Z 2622/2718 23006KT P6SM VCSH FEW040 SCT070 SCT100
     FM262300 22012KT P6SM BKN040
     FM270300 21006KT 3SM BR SCT040
     FM271430 24010KT P6SM BKN040=



000
FTUS43 KIND 262000 AAA
TAFLAF
TAF AMD
KLAF 262037Z 2621/2718 25009G17KT P6SM VCTS FEW030 SCT040 BKN100CB
     FM262300 22012KT P6SM BKN040
     FM270300 21006KT 3SM BR SCT040
     FM271430 24010KT P6SM BKN040=



000
FTUS43 KIND 262000 AAA
TAFIND
TAF AMD
KIND 262027Z 2620/2724 18016KT P6SM VCTS FEW045 BKN090CB
     FM270000 21010KT P6SM BKN040
     FM270600 20006KT P6SM SCT040
     FM271500 22014G18KT P6SM BKN040
     FM271900 24013KT P6SM VCTS BKN040CB=



000
FTUS43 KIND 261700
TAFIND
TAF
KIND 261725Z 2618/2724 18018G25KT P6SM BKN035 BKN150
     FM261900 20012G24KT P6SM VCTS BKN025CB
      TEMPO 2619/2622 23012G22KT 4SM -TSRA BR OVC015CB
     FM270000 21010KT P6SM BKN040
     FM270600 20006KT P6SM SCT040
     FM271500 22014G18KT P6SM BKN040
     FM271900 24013KT P6SM VCTS BKN040CB=



000
FTUS43 KIND 261700
TAFLAF
TAF
KLAF 261725Z 2618/2718 17008G20KT P6SM VCTS BKN025CB BKN150
      TEMPO 2618/2622 21012G24KT 3SM -TSRA BR OVC015CB
     FM262300 22012KT P6SM BKN040
     FM270300 21006KT 3SM BR SCT040
     FM271430 24010KT P6SM BKN040=



000
FTUS43 KIND 261500 AAA
TAFLAF
TAF AMD
KLAF 261550Z 2616/2712 16011G22KT P6SM BKN023 OVC027
     FM261730 21012G24KT P6SM VCTS BKN035CB
     FM270200 22008KT P6SM BKN025
     FM270700 22005KT 2SM BR BKN020=



000
FTUS43 KIND 261400 AAA
TAFIND
TAF AMD
KIND 261414Z 2614/2718 15009KT P6SM BKN040 OVC230
     FM261630 19012G20KT P6SM VCSH BKN015
     FM261700 19013G28KT P6SM VCTS BKN035CB
     FM270200 21010KT P6SM BKN025
      TEMPO 2709/2713 4SM BR
     FM271500 22014G18KT P6SM BKN035=



000
FTUS43 KIND 261400 AAA
TAFIND
TAF AMD
KIND 261414Z 2614/2718 15009KT P6SM BKN040 OVC230
     FM261630 19012G20KT P6SM VCSH BKN015
     FM261700 19013G28KT P6SM VCTS BKN035CB
     FM270200 21010KT P6SM BKN025
      TEMPO 2709/2713 4SM BR
     FM271500 22014G18KT P6SM BKN035=



000
FTUS43 KIND 261100
TAFLAF
TAF
KLAF 261131Z 2612/2712 17006KT 6SM BR OVC010
     FM261500 20009G19KT P6SM -SHRA BKN025
     FM261900 21012G24KT P6SM VCTS BKN035CB
     FM270200 22008KT P6SM BKN025
     FM270700 22005KT 2SM BR BKN020
      AMD LTD TO CLD VIS AND WIND TIL 261300=



000
FTUS43 KIND 261100
TAFIND
TAF
KIND 261131Z 2612/2718 15009KT P6SM BKN013 OVC230
     FM261500 19012G20KT P6SM -SHRA BKN025
     FM261700 19013G28KT P6SM VCTS BKN035CB
     FM270200 21010KT P6SM BKN025
      TEMPO 2709/2713 4SM BR
     FM271500 22014G18KT P6SM BKN035=



000
FTUS43 KIND 260800 AAA
TAFIND
TAF AMD
KIND 260807Z 2608/2712 15009KT P6SM BKN008 OVC010
     FM260900 19008KT 4SM BR OVC015
     FM261500 19012G20KT P6SM BKN025
     FM261900 19013G28KT P6SM VCTS BKN035CB
     FM270200 21010KT P6SM BKN025=



000
FTUS43 KIND 260500
TAFIND
TAF
KIND 260520Z 2606/2712 19008KT P6SM BKN012 OVC250
     FM260900 19008KT 4SM BR OVC015
     FM261500 19012G20KT P6SM BKN025
     FM261900 19013G28KT P6SM VCTS BKN035CB
     FM270200 21010KT P6SM BKN025=



000
FTUS43 KIND 260500
TAFLAF
TAF
KLAF 260520Z 2606/2706 19007KT P6SM SCT020
     FM260800 20006KT 3SM BR OVC015
     FM261500 20009G19KT P6SM BKN025
     FM261900 21012G24KT P6SM VCTS BKN035CB
     FM270200 22008KT P6SM BKN025
      AMD LTD TO CLD VIS AND WIND TIL 261300=



000
FTUS43 KIND 260500
TAFIND
TAF
KIND 260520Z 2606/2712 19008KT P6SM BKN012 OVC250
     FM260900 19008KT 4SM BR OVC015
     FM261500 19012G20KT P6SM BKN025
     FM261900 19013G28KT P6SM VCTS BKN035CB
     FM270200 21010KT P6SM BKN025=



000
FTUS43 KIND 260500
TAFLAF
TAF
KLAF 260520Z 2606/2706 19007KT P6SM SCT020
     FM260800 20006KT 3SM BR OVC015
     FM261500 20009G19KT P6SM BKN025
     FM261900 21012G24KT P6SM VCTS BKN035CB
     FM270200 22008KT P6SM BKN025
      AMD LTD TO CLD VIS AND WIND TIL 261300=



000
FTUS43 KIND 260200 AAB
TAFIND
TAF AMD
KIND 260205Z 2602/2706 18008KT P6SM FEW025 BKN200
     FM260500 18008KT P6SM OVC025
     FM260900 19008KT 4SM BR OVC007
      TEMPO 2609/2612 3SM -DZ
     FM261500 19012G20KT P6SM BKN025
     FM261900 19013G23KT P6SM VCSH BKN035=



000
FTUS43 KIND 260100 AAA
TAFIND
TAF AMD
KIND 260100Z 2601/2706 18011KT P6SM SCT025 BKN200
     FM260500 17010KT P6SM OVC025
     FM260900 19008KT 4SM BR OVC007
      TEMPO 2609/2612 3SM -DZ
     FM261500 19012G20KT P6SM BKN025
     FM261900 19013G23KT P6SM VCSH BKN035=



000
FTUS43 KIND 252300
TAFIND
TAF
KIND 252332Z 2600/2706 19013G23KT P6SM FEW025 BKN040
     FM260200 19010KT P6SM BKN035
     FM260500 17010KT P6SM OVC025
     FM260900 19008KT 4SM BR OVC007
      TEMPO 2609/2612 3SM -DZ
     FM261500 19012G20KT P6SM BKN025
     FM261900 19013G23KT P6SM VCSH BKN035=



000
FTUS43 KIND 252300
TAFLAF
TAF
KLAF 252332Z 2600/2624 21008G18KT P6SM BKN040
     FM260100 20007KT P6SM OVC035
     FM260500 19005KT 3SM BR OVC015
     FM260700 20006KT 3SM BR OVC007
      TEMPO 2608/2612 3SM -DZ
     FM261500 20009G19KT P6SM BKN025
     FM261900 21012G22KT P6SM VCSH BKN035
      AMD LTD TO CLD VIS AND WIND 2601/2613=



000
FTUS43 KIND 252300
TAFIND
TAF
KIND 252332Z 2600/2706 19013G23KT P6SM FEW025 BKN040
     FM260200 19010KT P6SM BKN035
     FM260500 17010KT P6SM OVC025
     FM260900 19008KT 4SM BR OVC007
      TEMPO 2609/2612 3SM -DZ
     FM261500 19012G20KT P6SM BKN025
     FM261900 19013G23KT P6SM VCSH BKN035=



000
FTUS43 KIND 252300
TAFLAF
TAF
KLAF 252332Z 2600/2624 21008G18KT P6SM BKN040
     FM260100 20007KT P6SM OVC035
     FM260500 19005KT 3SM BR OVC015
     FM260700 20006KT 3SM BR OVC007
      TEMPO 2608/2612 3SM -DZ
     FM261500 20009G19KT P6SM BKN025
     FM261900 21012G22KT P6SM VCSH BKN035
      AMD LTD TO CLD VIS AND WIND 2601/2613=



000
FTUS43 KIND 252000 AAA
TAFLAF
TAF AMD
KLAF 252020Z 2520/2618 22013G23KT P6SM SCT040 BKN060
     FM260100 18007KT P6SM OVC035
     FM260800 18008KT 3SM BR OVC015
     FM261330 18011G21KT P6SM BKN035=



000
FTUS43 KIND 252000 AAA
TAFIND
TAF AMD
KIND 252019Z 2520/2624 21015G27KT P6SM VCSH FEW020 BKN035
     FM252200 20018G27KT P6SM BKN035
     FM260200 19010KT P6SM BKN035
     FM260800 18010KT P6SM OVC025
     FM261500 18012G20KT P6SM BKN035
     FM261900 18010G20KT P6SM VCSH BKN035=



000
FTUS43 KIND 252000 AAA
TAFIND
TAF AMD
KIND 252019Z 2520/2624 21015G27KT P6SM VCSH FEW020 BKN035
     FM252200 20018G27KT P6SM BKN035
     FM260200 19010KT P6SM BKN035
     FM260800 18010KT P6SM OVC025
     FM261500 18012G20KT P6SM BKN035
     FM261900 18010G20KT P6SM VCSH BKN035=



000
FTUS43 KIND 251700
TAFLAF
TAF
KLAF 251725Z 2518/2618 21015G29KT P6SM VCSH OVC030
     FM252100 20010G18KT P6SM OVC035
     FM260200 18007KT P6SM OVC035
     FM260800 18008KT 3SM BR OVC015
     FM261330 18011G21KT P6SM BKN035=



000
FTUS43 KIND 251700
TAFIND
TAF
KIND 251725Z 2518/2624 20017G28KT P6SM VCSH BKN025
     FM252200 20018G27KT P6SM BKN030
     FM260200 19010KT P6SM BKN035
     FM260800 18010KT P6SM OVC025
     FM261500 18012G20KT P6SM BKN035
     FM261900 18010G20KT P6SM VCSH BKN035=



000
FTUS43 KIND 251400 AAA
TAFIND
TAF AMD
KIND 251421Z 2514/2618 19017G28KT P6SM VCSH BKN025
     FM251900 21018G27KT P6SM OVC035
     FM260000 19012G20KT P6SM OVC040
     FM260600 18010KT 5SM BR OVC025
     FM261500 18012G20KT P6SM OVC050=



000
FTUS43 KIND 251100
TAFLAF
TAF
KLAF 251120Z 2512/2612 20015G25KT P6SM -SHRA SCT015 OVC040
     FM251500 21015G27KT P6SM VCTS BKN025CB
     FM251800 22015G29KT P6SM OVC035
     FM260000 19010G18KT P6SM OVC040
     FM260400 17007KT 5SM BR OVC030
      AMD LTD TO CLD VIS AND WIND TIL 251300=



000
FTUS43 KIND 251100
TAFIND
TAF
KIND 251120Z 2512/2618 19017G28KT P6SM -SHRA SCT015 OVC025
     FM251500 21019G30KT P6SM VCTS BKN025CB
     FM251900 21018G27KT P6SM OVC035
     FM260000 19012G20KT P6SM OVC040
     FM260600 18010KT 5SM BR OVC025
     FM261500 18012G20KT P6SM OVC050=



000
FTUS43 KIND 251000 AAA
TAFLAF
TAF AMD
KLAF 251019Z 2510/2606 19012G22KT P6SM SCT060 BKN100
     FM251100 20015G25KT P6SM -SHRA SCT015 OVC040
     FM251500 22015G27KT P6SM VCTS BKN025CB
     FM251800 23013G27KT P6SM BKN035
      AMD LTD TO CLD VIS AND WIND TIL 251300=



000
FTUS43 KIND 251000 AAB
TAFIND
TAF AMD
KIND 251018Z 2510/2612 19015G25KT P6SM -SHRA SCT015 OVC025
     FM251500 21015G27KT P6SM VCTS BKN025CB
     FM251900 21015G27KT P6SM BKN035
     FM260100 19010KT P6SM SCT030=



000
FTUS43 KIND 250800 AAA
TAFIND
TAF AMD
KIND 250821Z 2508/2612 18011KT P6SM SCT080 BKN250
     FM251000 18015G22KT P6SM -SHRA VCTS SCT015CB OVC025
     FM251500 21015G27KT P6SM VCTS BKN025CB
     FM251900 21015G27KT P6SM BKN035
     FM260100 19010KT P6SM SCT030=



000
FTUS43 KIND 250800 AAA
TAFIND
TAF AMD
KIND 250821Z 2508/2612 18011KT P6SM SCT080 BKN250
     FM251000 18015G22KT P6SM -SHRA VCTS SCT015CB OVC025
     FM251500 21015G27KT P6SM VCTS BKN025CB
     FM251900 21015G27KT P6SM BKN035
     FM260100 19010KT P6SM SCT030=



000
FTUS43 KIND 250500
TAFIND
TAF
KIND 250520Z 2506/2612 16011KT P6SM SCT080 BKN250
     FM251000 18015G22KT P6SM -SHRA VCTS SCT015CB OVC025
     FM251500 21015G27KT P6SM VCTS BKN025CB
     FM251900 21015G27KT P6SM BKN035
     FM260100 19010KT P6SM SCT030=



000
FTUS43 KIND 250500
TAFLAF
TAF
KLAF 250520Z 2506/2606 17010KT P6SM SCT060 BKN100
     FM251100 19015G22KT P6SM -SHRA VCTS SCT015CB OVC025
     FM251500 22015G27KT P6SM VCTS BKN025CB
     FM251800 23013G27KT P6SM BKN035
      AMD LTD TO CLD VIS AND WIND TIL 251300=



000
FTUS43 KIND 250200 AAB
TAFIND
TAF AMD
KIND 250215Z 2502/2606 16011KT P6SM SCT080 BKN250
     FM251000 17015G22KT P6SM -SHRA VCTS SCT015CB OVC025
     FM251500 21015G27KT P6SM VCTS BKN025CB
     FM251900 21015G27KT P6SM BKN035
     FM260100 19010KT P6SM SCT030=



000
FTUS43 KIND 250100 AAA
TAFLAF
TAF AMD
KLAF 250113Z 2501/2524 17011KT P6SM SCT060 BKN100
     FM250900 19015G22KT P6SM -SHRA VCTS SCT015CB OVC025
     FM251400 22015G27KT P6SM VCTS BKN025CB
     FM251700 23013G27KT P6SM BKN035
      AMD LTD TO CLD VIS AND WIND TIL 251300=



000
FTUS43 KIND 250100 AAA
TAFLAF
TAF AMD
KLAF 250113Z 2501/2524 17011KT P6SM SCT060 BKN100
     FM250900 19015G22KT P6SM -SHRA VCTS SCT015CB OVC025
     FM251400 22015G27KT P6SM VCTS BKN025CB
     FM251700 23013G27KT P6SM BKN035
      AMD LTD TO CLD VIS AND WIND TIL 251300=



000
FTUS43 KIND 250100 AAA
TAFIND
TAF AMD
KIND 250112Z 2501/2606 17012KT P6SM SCT080 BKN250
     FM251000 17015G22KT P6SM -SHRA VCTS SCT015CB OVC025
     FM251500 21015G27KT P6SM VCTS BKN025CB
     FM251900 21015G27KT P6SM BKN035
     FM260100 19010KT P6SM SCT030=



000
FTUS43 KIND 250100 AAA
TAFIND
TAF AMD
KIND 250112Z 2501/2606 17012KT P6SM SCT080 BKN250
     FM251000 17015G22KT P6SM -SHRA VCTS SCT015CB OVC025
     FM251500 21015G27KT P6SM VCTS BKN025CB
     FM251900 21015G27KT P6SM BKN035
     FM260100 19010KT P6SM SCT030=



000
FTUS43 KIND 242300
TAFIND
TAF
KIND 242331Z 2500/2606 17014G23KT P6SM SCT080 BKN250
     FM251000 17015G22KT P6SM -SHRA VCTS SCT015CB OVC025
     FM251500 21015G27KT P6SM VCTS BKN025CB
     FM251900 21015G27KT P6SM BKN035
     FM260100 19010KT P6SM SCT030=



000
FTUS43 KIND 242300
TAFLAF
TAF
KLAF 242331Z 2500/2524 17012G20KT P6SM SCT060 BKN100
     FM250900 19015G22KT P6SM -SHRA VCTS SCT015CB OVC025
     FM251400 22015G27KT P6SM VCTS BKN025CB
     FM251700 23013G27KT P6SM BKN035
      AMD LTD TO CLD VIS AND WIND 2501/2513=



000
FTUS43 KIND 242300
TAFIND
TAF
KIND 242331Z 2500/2606 17014G23KT P6SM SCT080 BKN250
     FM251000 17015G22KT P6SM -SHRA VCTS SCT015CB OVC025
     FM251500 21015G27KT P6SM VCTS BKN025CB
     FM251900 21015G27KT P6SM BKN035
     FM260100 19010KT P6SM SCT030=



000
FTUS43 KIND 242300
TAFLAF
TAF
KLAF 242331Z 2500/2524 17012G20KT P6SM SCT060 BKN100
     FM250900 19015G22KT P6SM -SHRA VCTS SCT015CB OVC025
     FM251400 22015G27KT P6SM VCTS BKN025CB
     FM251700 23013G27KT P6SM BKN035
      AMD LTD TO CLD VIS AND WIND 2501/2513=



000
FTUS43 KIND 242000 AAA
TAFLAF
TAF AMD
KLAF 242011Z 2420/2518 18011G19KT P6SM SCT060 BKN080
     FM250100 17012KT P6SM BKN040 OVC100
     FM250700 18013KT P6SM -SHRA OVC025
     FM251400 22011G22KT P6SM BKN025=



000
FTUS43 KIND 242000 AAA
TAFIND
TAF AMD
KIND 242007Z 2420/2524 18012G21KT P6SM SCT060 BKN110
     FM250100 17013KT P6SM BKN040
     FM251000 18013KT P6SM -SHRA OVC025
     FM251500 20011G22KT P6SM BKN025=



000
FTUS43 KIND 241700
TAFIND
TAF
KIND 241725Z 2418/2524 20013KT P6SM SCT060 BKN110
     FM250100 17013KT P6SM BKN040
     FM251000 18013KT P6SM -SHRA OVC025
     FM251500 20011G22KT P6SM BKN025=



000
FTUS43 KIND 241700
TAFLAF
TAF
KLAF 241725Z 2418/2518 18012KT P6SM SCT060 BKN130
     FM250100 17012KT P6SM BKN040 OVC100
     FM250700 18013KT P6SM -SHRA OVC025
     FM251400 22011G22KT P6SM BKN025=



000
FTUS43 KIND 241400 AAA
TAFIND
TAF AMD
KIND 241423Z 2414/2518 17012KT P6SM BKN060 BKN140
     FM241500 17012KT P6SM SCT040 BKN100
     FM242100 17013G20KT P6SM BKN040
     FM250900 18013G20KT P6SM -SHRA OVC040
     FM251500 21015G25KT P6SM -SHRA OVC035=



000
FTUS43 KIND 241100
TAFIND
TAF
KIND 241120Z 2412/2518 14008KT P6SM BKN140
     FM241500 17012G20KT P6SM SCT040 BKN100
     FM242100 17013G20KT P6SM BKN040
     FM250900 18013G20KT P6SM -SHRA OVC040
     FM251500 21015G25KT P6SM -SHRA OVC035=



000
FTUS43 KIND 241100
TAFLAF
TAF
KLAF 241120Z 2412/2512 12004KT P6SM BKN150
     FM241500 17010G18KT P6SM BKN040
     FM242100 17012G18KT P6SM BKN040 OVC100
     FM250700 18013G18KT P6SM -SHRA OVC040
      AMD LTD TO CLD VIS AND WIND TIL 241300=



    US Dept of Commerce
    National Oceanic and Atmospheric Administration
    National Weather Service
    1325 East West Highway
    Silver Spring, MD 20910
    Page Author: NWS Internet Services Team
Disclaimer
Information Quality
Credits
Glossary
Privacy Policy
Freedom of Information Act (FOIA)
About Us
Career Opportunities